sensor_id;sensor_type;location;lat;lon;timestamp;temperature;humidity
7317;DHT22;3699;51.462;6.696;2023-04-01T00:01:19;10.80;99.90
7317;DHT22;3699;51.462;6.696;2023-04-01T00:03:46;10.50;99.90
7317;DHT22;3699;51.462;6.696;2023-04-01T00:06:15;10.80;99.90
7317;DHT22;3699;51.462;6.696;2023-04-01T00:08:41;10.30;99.90
7317;DHT22;3699;51.462;6.696;2023-04-01T00:11:09;10.60;99.90
7317;DHT22;3699;51.462;6.696;2023-04-01T00:13:36;10.80;99.90
7317;DHT22;3699;51.462;6.696;2023-04-01T00:16:03;10.80;99.90
7317;DHT22;3699;51.462;6.696;2023-04-01T00:18:31;10.80;99.90
7317;DHT22;3699;51.462;6.696;2023-04-01T00:20:58;11.10;99.90
7317;DHT22;3699;51.462;6.696;2023-04-01T00:23:25;11.10;99.90
7317;DHT22;3699;51.462;6.696;2023-04-01T00:25:52;11.00;99.90
7317;DHT22;3699;51.462;6.696;2023-04-01T00:28:19;10.70;99.90
7317;DHT22;3699;51.462;6.696;2023-04-01T00:33:13;10.80;99.90
7317;DHT22;3699;51.462;6.696;2023-04-01T00:35:42;10.70;99.90
7317;DHT22;3699;51.462;6.696;2023-04-01T00:40:38;11.00;99.90
7317;DHT22;3699;51.462;6.696;2023-04-01T00:43:11;11.30;99.90
7317;DHT22;3699;51.462;6.696;2023-04-01T00:45:39;10.60;99.90
7317;DHT22;3699;51.462;6.696;2023-04-01T00:48:10;10.30;99.90
7317;DHT22;3699;51.462;6.696;2023-04-01T00:50:39;10.90;99.90
7317;DHT22;3699;51.462;6.696;2023-04-01T00:53:08;11.00;99.90
7317;DHT22;3699;51.462;6.696;2023-04-01T00:55:39;10.40;99.90
7317;DHT22;3699;51.462;6.696;2023-04-01T00:58:10;10.60;99.90
7317;DHT22;3699;51.462;6.696;2023-04-01T01:00:39;10.90;99.90
7317;DHT22;3699;51.462;6.696;2023-04-01T01:03:06;10.80;99.90
7317;DHT22;3699;51.462;6.696;2023-04-01T01:05:44;10.70;99.90
7317;DHT22;3699;51.462;6.696;2023-04-01T01:08:23;10.60;99.90
7317;DHT22;3699;51.462;6.696;2023-04-01T01:10:52;10.70;99.90
7317;DHT22;3699;51.462;6.696;2023-04-01T01:13:25;10.90;99.90
7317;DHT22;3699;51.462;6.696;2023-04-01T01:15:56;10.60;99.90
7317;DHT22;3699;51.462;6.696;2023-04-01T01:18:30;11.10;99.90
7317;DHT22;3699;51.462;6.696;2023-04-01T01:21:22;10.60;99.90
7317;DHT22;3699;51.462;6.696;2023-04-01T01:27:03;10.70;99.90
7317;DHT22;3699;51.462;6.696;2023-04-01T01:29:42;10.70;99.90
7317;DHT22;3699;51.462;6.696;2023-04-01T01:32:19;11.20;99.90
7317;DHT22;3699;51.462;6.696;2023-04-01T01:34:51;11.10;99.90
7317;DHT22;3699;51.462;6.696;2023-04-01T01:37:25;11.00;99.90
7317;DHT22;3699;51.462;6.696;2023-04-01T01:39:56;10.70;99.90
7317;DHT22;3699;51.462;6.696;2023-04-01T01:42:26;10.70;99.90
7317;DHT22;3699;51.462;6.696;2023-04-01T01:44:55;10.80;99.90
7317;DHT22;3699;51.462;6.696;2023-04-01T01:47:25;10.70;99.90
7317;DHT22;3699;51.462;6.696;2023-04-01T01:49:53;10.70;99.90
7317;DHT22;3699;51.462;6.696;2023-04-01T01:52:23;10.70;99.90
7317;DHT22;3699;51.462;6.696;2023-04-01T01:54:52;10.70;99.90
7317;DHT22;3699;51.462;6.696;2023-04-01T01:57:21;10.70;99.90
7317;DHT22;3699;51.462;6.696;2023-04-01T01:59:50;10.60;99.90
7317;DHT22;3699;51.462;6.696;2023-04-01T02:02:19;10.60;99.90
7317;DHT22;3699;51.462;6.696;2023-04-01T02:04:48;10.80;99.90
7317;DHT22;3699;51.462;6.696;2023-04-01T02:07:18;10.70;99.90
7317;DHT22;3699;51.462;6.696;2023-04-01T02:09:47;10.50;99.90
7317;DHT22;3699;51.462;6.696;2023-04-01T02:12:16;10.60;99.90
7317;DHT22;3699;51.462;6.696;2023-04-01T02:14:47;10.50;99.90
7317;DHT22;3699;51.462;6.696;2023-04-01T02:17:17;10.80;99.90
7317;DHT22;3699;51.462;6.696;2023-04-01T02:19:48;10.60;99.90
7317;DHT22;3699;51.462;6.696;2023-04-01T02:22:18;10.80;99.90
7317;DHT22;3699;51.462;6.696;2023-04-01T02:24:49;10.60;99.90
7317;DHT22;3699;51.462;6.696;2023-04-01T02:27:17;10.80;99.90
7317;DHT22;3699;51.462;6.696;2023-04-01T02:32:11;10.70;99.90
7317;DHT22;3699;51.462;6.696;2023-04-01T02:34:39;11.00;99.90
7317;DHT22;3699;51.462;6.696;2023-04-01T02:37:06;10.80;99.90
7317;DHT22;3699;51.462;6.696;2023-04-01T02:39:33;10.70;99.90
7317;DHT22;3699;51.462;6.696;2023-04-01T02:42:01;10.60;99.90
7317;DHT22;3699;51.462;6.696;2023-04-01T02:44:27;10.60;99.90
7317;DHT22;3699;51.462;6.696;2023-04-01T02:46:54;10.80;99.90
7317;DHT22;3699;51.462;6.696;2023-04-01T02:49:22;10.60;99.90
7317;DHT22;3699;51.462;6.696;2023-04-01T02:56:44;10.60;99.90
7317;DHT22;3699;51.462;6.696;2023-04-01T02:59:12;10.70;99.90
7317;DHT22;3699;51.462;6.696;2023-04-01T03:04:06;10.40;99.90
7317;DHT22;3699;51.462;6.696;2023-04-01T03:06:33;10.50;99.90
7317;DHT22;3699;51.462;6.696;2023-04-01T03:09:00;10.80;99.90
7317;DHT22;3699;51.462;6.696;2023-04-01T03:16:22;10.90;99.90
7317;DHT22;3699;51.462;6.696;2023-04-01T03:21:20;10.70;99.90
7317;DHT22;3699;51.462;6.696;2023-04-01T03:26:14;10.60;99.90
7317;DHT22;3699;51.462;6.696;2023-04-01T03:28:41;10.80;99.90
7317;DHT22;3699;51.462;6.696;2023-04-01T03:33:37;10.70;99.90
7317;DHT22;3699;51.462;6.696;2023-04-01T03:36:04;10.70;99.90
7317;DHT22;3699;51.462;6.696;2023-04-01T03:38:32;10.90;99.90
7317;DHT22;3699;51.462;6.696;2023-04-01T03:40:58;10.90;99.90
7317;DHT22;3699;51.462;6.696;2023-04-01T03:48:20;10.70;99.90
7317;DHT22;3699;51.462;6.696;2023-04-01T03:50:48;10.60;99.90
7317;DHT22;3699;51.462;6.696;2023-04-01T03:53:15;10.80;99.90
7317;DHT22;3699;51.462;6.696;2023-04-01T03:55:42;10.70;99.90
7317;DHT22;3699;51.462;6.696;2023-04-01T03:58:09;10.90;99.90
7317;DHT22;3699;51.462;6.696;2023-04-01T04:00:36;10.50;99.90
7317;DHT22;3699;51.462;6.696;2023-04-01T04:03:03;10.70;99.90
7317;DHT22;3699;51.462;6.696;2023-04-01T04:05:29;10.80;99.90
7317;DHT22;3699;51.462;6.696;2023-04-01T04:07:57;10.60;99.90
7317;DHT22;3699;51.462;6.696;2023-04-01T04:12:52;10.80;99.90
7317;DHT22;3699;51.462;6.696;2023-04-01T04:15:18;10.50;99.90
7317;DHT22;3699;51.462;6.696;2023-04-01T04:17:45;10.90;99.90
7317;DHT22;3699;51.462;6.696;2023-04-01T04:20:12;10.70;99.90
7317;DHT22;3699;51.462;6.696;2023-04-01T04:22:40;10.60;99.90
7317;DHT22;3699;51.462;6.696;2023-04-01T04:25:08;10.80;99.90
7317;DHT22;3699;51.462;6.696;2023-04-01T04:27:35;10.90;99.90
7317;DHT22;3699;51.462;6.696;2023-04-01T04:30:02;10.60;99.90
7317;DHT22;3699;51.462;6.696;2023-04-01T04:32:30;10.90;99.90
7317;DHT22;3699;51.462;6.696;2023-04-01T04:34:57;10.80;99.90
7317;DHT22;3699;51.462;6.696;2023-04-01T04:39:51;10.90;99.90
7317;DHT22;3699;51.462;6.696;2023-04-01T04:42:19;10.70;99.90
7317;DHT22;3699;51.462;6.696;2023-04-01T04:44:46;10.90;99.90
7317;DHT22;3699;51.462;6.696;2023-04-01T04:47:13;10.30;99.90
7317;DHT22;3699;51.462;6.696;2023-04-01T04:49:39;10.70;99.90
7317;DHT22;3699;51.462;6.696;2023-04-01T04:52:06;10.50;99.90
7317;DHT22;3699;51.462;6.696;2023-04-01T04:59:28;10.20;99.90
7317;DHT22;3699;51.462;6.696;2023-04-01T05:01:55;10.50;99.90
7317;DHT22;3699;51.462;6.696;2023-04-01T05:06:49;10.80;99.90
7317;DHT22;3699;51.462;6.696;2023-04-01T05:09:17;10.60;99.90
7317;DHT22;3699;51.462;6.696;2023-04-01T05:11:43;10.60;99.90
7317;DHT22;3699;51.462;6.696;2023-04-01T05:14:13;10.80;99.90
7317;DHT22;3699;51.462;6.696;2023-04-01T05:16:41;11.10;99.90
7317;DHT22;3699;51.462;6.696;2023-04-01T05:19:08;10.80;99.90
7317;DHT22;3699;51.462;6.696;2023-04-01T05:24:01;10.10;99.90
7317;DHT22;3699;51.462;6.696;2023-04-01T05:26:28;10.80;99.90
7317;DHT22;3699;51.462;6.696;2023-04-01T05:28:56;10.60;99.90
7317;DHT22;3699;51.462;6.696;2023-04-01T05:33:52;10.60;99.90
7317;DHT22;3699;51.462;6.696;2023-04-01T05:36:19;10.60;99.90
7317;DHT22;3699;51.462;6.696;2023-04-01T05:38:46;10.60;99.90
7317;DHT22;3699;51.462;6.696;2023-04-01T05:43:40;10.60;99.90
7317;DHT22;3699;51.462;6.696;2023-04-01T05:48:35;10.60;99.90
7317;DHT22;3699;51.462;6.696;2023-04-01T05:51:04;10.60;99.90
7317;DHT22;3699;51.462;6.696;2023-04-01T05:53:31;10.60;99.90
7317;DHT22;3699;51.462;6.696;2023-04-01T05:56:02;10.50;99.90
7317;DHT22;3699;51.462;6.696;2023-04-01T05:58:29;10.70;99.90
7317;DHT22;3699;51.462;6.696;2023-04-01T06:01:00;10.20;99.90
7317;DHT22;3699;51.462;6.696;2023-04-01T06:03:27;10.90;99.90
7317;DHT22;3699;51.462;6.696;2023-04-01T06:05:54;11.00;99.90
7317;DHT22;3699;51.462;6.696;2023-04-01T06:08:22;10.70;99.90
7317;DHT22;3699;51.462;6.696;2023-04-01T06:11:07;10.70;99.90
7317;DHT22;3699;51.462;6.696;2023-04-01T06:13:52;10.50;99.90
7317;DHT22;3699;51.462;6.696;2023-04-01T06:16:29;10.90;99.90
7317;DHT22;3699;51.462;6.696;2023-04-01T06:19:05;10.90;99.90
7317;DHT22;3699;51.462;6.696;2023-04-01T06:22:03;10.70;99.90
7317;DHT22;3699;51.462;6.696;2023-04-01T06:27:41;11.00;99.90
7317;DHT22;3699;51.462;6.696;2023-04-01T06:30:29;10.80;99.90
7317;DHT22;3699;51.462;6.696;2023-04-01T06:33:13;10.90;99.90
7317;DHT22;3699;51.462;6.696;2023-04-01T06:35:54;10.80;99.90
7317;DHT22;3699;51.462;6.696;2023-04-01T06:38:44;10.80;99.90
7317;DHT22;3699;51.462;6.696;2023-04-01T06:41:31;10.90;99.90
7317;DHT22;3699;51.462;6.696;2023-04-01T06:44:11;10.70;99.90
7317;DHT22;3699;51.462;6.696;2023-04-01T06:46:44;11.00;99.90
7317;DHT22;3699;51.462;6.696;2023-04-01T06:49:25;10.80;99.90
7317;DHT22;3699;51.462;6.696;2023-04-01T06:52:01;10.80;99.90
7317;DHT22;3699;51.462;6.696;2023-04-01T06:54:34;10.80;99.90
7317;DHT22;3699;51.462;6.696;2023-04-01T06:57:14;10.70;99.90
7317;DHT22;3699;51.462;6.696;2023-04-01T07:02:19;10.80;99.90
7317;DHT22;3699;51.462;6.696;2023-04-01T07:04:51;11.10;99.90
7317;DHT22;3699;51.462;6.696;2023-04-01T07:07:24;11.00;99.90
7317;DHT22;3699;51.462;6.696;2023-04-01T07:09:56;10.70;99.90
7317;DHT22;3699;51.462;6.696;2023-04-01T07:12:35;10.70;99.90
7317;DHT22;3699;51.462;6.696;2023-04-01T07:15:15;11.00;99.90
7317;DHT22;3699;51.462;6.696;2023-04-01T07:17:44;11.20;99.90
7317;DHT22;3699;51.462;6.696;2023-04-01T07:20:16;11.20;99.90
7317;DHT22;3699;51.462;6.696;2023-04-01T07:22:47;11.40;99.90
7317;DHT22;3699;51.462;6.696;2023-04-01T07:25:17;10.90;99.90
7317;DHT22;3699;51.462;6.696;2023-04-01T07:27:46;11.10;99.90
7317;DHT22;3699;51.462;6.696;2023-04-01T07:30:15;11.30;99.90
7317;DHT22;3699;51.462;6.696;2023-04-01T07:32:45;11.00;99.90
7317;DHT22;3699;51.462;6.696;2023-04-01T07:35:22;11.30;99.90
7317;DHT22;3699;51.462;6.696;2023-04-01T07:38:04;11.20;99.90
7317;DHT22;3699;51.462;6.696;2023-04-01T07:40:39;11.10;99.90
7317;DHT22;3699;51.462;6.696;2023-04-01T07:43:35;11.10;99.90
7317;DHT22;3699;51.462;6.696;2023-04-01T07:46:14;11.00;99.90
7317;DHT22;3699;51.462;6.696;2023-04-01T07:48:49;11.30;99.90
7317;DHT22;3699;51.462;6.696;2023-04-01T07:51:23;11.20;99.90
7317;DHT22;3699;51.462;6.696;2023-04-01T07:54:00;11.10;99.90
7317;DHT22;3699;51.462;6.696;2023-04-01T07:56:32;11.40;99.90
7317;DHT22;3699;51.462;6.696;2023-04-01T07:59:07;11.30;99.90
7317;DHT22;3699;51.462;6.696;2023-04-01T08:01:41;11.00;99.90
7317;DHT22;3699;51.462;6.696;2023-04-01T08:04:33;11.10;99.90
7317;DHT22;3699;51.462;6.696;2023-04-01T08:07:07;11.10;99.90
7317;DHT22;3699;51.462;6.696;2023-04-01T08:09:42;11.20;99.90
7317;DHT22;3699;51.462;6.696;2023-04-01T08:12:21;11.30;99.90
7317;DHT22;3699;51.462;6.696;2023-04-01T08:14:56;11.40;99.90
7317;DHT22;3699;51.462;6.696;2023-04-01T08:17:30;11.40;99.90
7317;DHT22;3699;51.462;6.696;2023-04-01T08:20:19;11.10;99.90
7317;DHT22;3699;51.462;6.696;2023-04-01T08:22:51;11.40;99.90
7317;DHT22;3699;51.462;6.696;2023-04-01T08:25:21;11.50;99.90
7317;DHT22;3699;51.462;6.696;2023-04-01T08:27:52;11.40;99.90
7317;DHT22;3699;51.462;6.696;2023-04-01T08:30:24;11.30;99.90
7317;DHT22;3699;51.462;6.696;2023-04-01T08:32:54;11.60;99.90
7317;DHT22;3699;51.462;6.696;2023-04-01T08:35:27;11.30;99.90
7317;DHT22;3699;51.462;6.696;2023-04-01T08:38:01;11.10;99.90
7317;DHT22;3699;51.462;6.696;2023-04-01T08:43:29;11.40;99.90
7317;DHT22;3699;51.462;6.696;2023-04-01T08:46:16;11.30;99.90
7317;DHT22;3699;51.462;6.696;2023-04-01T08:48:57;11.60;99.90
7317;DHT22;3699;51.462;6.696;2023-04-01T08:51:58;11.40;99.90
7317;DHT22;3699;51.462;6.696;2023-04-01T08:55:02;11.50;99.90
7317;DHT22;3699;51.462;6.696;2023-04-01T08:57:40;11.60;99.90
7317;DHT22;3699;51.462;6.696;2023-04-01T09:00:19;11.40;99.90
7317;DHT22;3699;51.462;6.696;2023-04-01T09:03:24;11.70;99.90
7317;DHT22;3699;51.462;6.696;2023-04-01T09:06:21;11.80;99.90
7317;DHT22;3699;51.462;6.696;2023-04-01T09:09:01;11.90;99.90
7317;DHT22;3699;51.462;6.696;2023-04-01T09:11:44;11.30;99.90
7317;DHT22;3699;51.462;6.696;2023-04-01T09:14:47;11.80;99.90
7317;DHT22;3699;51.462;6.696;2023-04-01T09:17:36;11.90;99.90
7317;DHT22;3699;51.462;6.696;2023-04-01T09:20:23;11.90;99.90
7317;DHT22;3699;51.462;6.696;2023-04-01T09:23:06;12.10;99.90
7317;DHT22;3699;51.462;6.696;2023-04-01T09:25:48;11.80;99.90
7317;DHT22;3699;51.462;6.696;2023-04-01T09:28:19;12.40;99.90
7317;DHT22;3699;51.462;6.696;2023-04-01T09:31:08;12.00;99.90
7317;DHT22;3699;51.462;6.696;2023-04-01T09:36:47;12.30;99.90
7317;DHT22;3699;51.462;6.696;2023-04-01T09:39:35;12.30;99.90
7317;DHT22;3699;51.462;6.696;2023-04-01T09:44:58;12.30;99.90
7317;DHT22;3699;51.462;6.696;2023-04-01T09:47:41;12.10;99.90
7317;DHT22;3699;51.462;6.696;2023-04-01T09:50:30;12.00;99.90
7317;DHT22;3699;51.462;6.696;2023-04-01T09:53:17;12.20;99.90
7317;DHT22;3699;51.462;6.696;2023-04-01T09:56:02;12.20;99.90
7317;DHT22;3699;51.462;6.696;2023-04-01T10:01:42;12.20;99.90
7317;DHT22;3699;51.462;6.696;2023-04-01T10:04:49;12.40;99.90
7317;DHT22;3699;51.462;6.696;2023-04-01T10:07:43;12.20;99.90
7317;DHT22;3699;51.462;6.696;2023-04-01T10:10:54;12.30;99.90
7317;DHT22;3699;51.462;6.696;2023-04-01T10:16:53;12.40;99.90
7317;DHT22;3699;51.462;6.696;2023-04-01T10:19:49;12.40;99.90
7317;DHT22;3699;51.462;6.696;2023-04-01T10:23:09;12.40;99.90
7317;DHT22;3699;51.462;6.696;2023-04-01T10:28:57;12.70;99.90
7317;DHT22;3699;51.462;6.696;2023-04-01T10:38:31;12.30;99.90
7317;DHT22;3699;51.462;6.696;2023-04-01T10:47:14;12.20;99.90
7317;DHT22;3699;51.462;6.696;2023-04-01T10:49:49;12.50;99.90
7317;DHT22;3699;51.462;6.696;2023-04-01T10:55:53;12.30;99.90
7317;DHT22;3699;51.462;6.696;2023-04-01T10:59:00;12.20;99.90
7317;DHT22;3699;51.462;6.696;2023-04-01T11:05:23;12.50;99.90
7317;DHT22;3699;51.462;6.696;2023-04-01T11:08:25;12.30;99.90
7317;DHT22;3699;51.462;6.696;2023-04-01T11:11:21;12.10;99.90
7317;DHT22;3699;51.462;6.696;2023-04-01T11:14:42;12.50;99.90
7317;DHT22;3699;51.462;6.696;2023-04-01T11:17:44;12.40;99.90
7317;DHT22;3699;51.462;6.696;2023-04-01T11:20:49;12.50;99.90
7317;DHT22;3699;51.462;6.696;2023-04-01T11:23:27;12.50;99.90
7317;DHT22;3699;51.462;6.696;2023-04-01T11:26:08;12.30;99.90
7317;DHT22;3699;51.462;6.696;2023-04-01T11:28:54;12.50;99.90
7317;DHT22;3699;51.462;6.696;2023-04-01T11:31:37;12.60;99.90
7317;DHT22;3699;51.462;6.696;2023-04-01T11:34:32;12.40;99.90
7317;DHT22;3699;51.462;6.696;2023-04-01T11:37:12;12.40;99.90
7317;DHT22;3699;51.462;6.696;2023-04-01T11:39:50;12.40;99.90
7317;DHT22;3699;51.462;6.696;2023-04-01T11:42:28;12.40;99.90
7317;DHT22;3699;51.462;6.696;2023-04-01T11:45:15;12.30;99.90
7317;DHT22;3699;51.462;6.696;2023-04-01T11:47:58;12.90;99.90
7317;DHT22;3699;51.462;6.696;2023-04-01T11:50:42;12.60;99.90
7317;DHT22;3699;51.462;6.696;2023-04-01T11:53:19;12.70;99.90
7317;DHT22;3699;51.462;6.696;2023-04-01T11:55:59;12.70;99.90
7317;DHT22;3699;51.462;6.696;2023-04-01T11:58:44;12.70;99.90
7317;DHT22;3699;51.462;6.696;2023-04-01T12:01:26;12.80;99.90
7317;DHT22;3699;51.462;6.696;2023-04-01T12:06:50;13.10;99.90
7317;DHT22;3699;51.462;6.696;2023-04-01T12:09:25;13.20;99.90
7317;DHT22;3699;51.462;6.696;2023-04-01T12:12:06;13.30;99.90
7317;DHT22;3699;51.462;6.696;2023-04-01T12:14:43;13.50;99.90
7317;DHT22;3699;51.462;6.696;2023-04-01T12:17:19;13.70;99.90
7317;DHT22;3699;51.462;6.696;2023-04-01T12:19:51;13.70;99.90
7317;DHT22;3699;51.462;6.696;2023-04-01T12:22:41;13.90;99.90
7317;DHT22;3699;51.462;6.696;2023-04-01T12:25:26;13.50;99.90
7317;DHT22;3699;51.462;6.696;2023-04-01T12:28:04;13.50;99.90
7317;DHT22;3699;51.462;6.696;2023-04-01T12:30:42;13.40;99.90
7317;DHT22;3699;51.462;6.696;2023-04-01T12:36:22;13.10;99.90
7317;DHT22;3699;51.462;6.696;2023-04-01T12:39:11;13.10;99.90
7317;DHT22;3699;51.462;6.696;2023-04-01T12:41:48;12.90;99.90
7317;DHT22;3699;51.462;6.696;2023-04-01T12:44:29;12.70;99.90
7317;DHT22;3699;51.462;6.696;2023-04-01T12:47:18;12.70;99.90
7317;DHT22;3699;51.462;6.696;2023-04-01T12:50:09;12.60;99.90
7317;DHT22;3699;51.462;6.696;2023-04-01T12:52:51;12.50;99.90
7317;DHT22;3699;51.462;6.696;2023-04-01T12:55:36;12.40;99.90
7317;DHT22;3699;51.462;6.696;2023-04-01T13:01:15;12.60;99.90
7317;DHT22;3699;51.462;6.696;2023-04-01T13:06:49;12.30;99.90
7317;DHT22;3699;51.462;6.696;2023-04-01T13:09:31;12.50;99.90
7317;DHT22;3699;51.462;6.696;2023-04-01T13:12:20;12.40;99.90
7317;DHT22;3699;51.462;6.696;2023-04-01T13:15:09;12.30;99.90
7317;DHT22;3699;51.462;6.696;2023-04-01T13:17:44;12.20;99.90
7317;DHT22;3699;51.462;6.696;2023-04-01T13:20:19;12.40;99.90
7317;DHT22;3699;51.462;6.696;2023-04-01T13:22:56;12.20;99.90
7317;DHT22;3699;51.462;6.696;2023-04-01T13:25:30;12.10;99.90
7317;DHT22;3699;51.462;6.696;2023-04-01T13:28:08;12.00;99.90
7317;DHT22;3699;51.462;6.696;2023-04-01T13:30:44;12.20;99.90
7317;DHT22;3699;51.462;6.696;2023-04-01T13:33:20;12.50;99.90
7317;DHT22;3699;51.462;6.696;2023-04-01T13:36:03;12.30;99.90
7317;DHT22;3699;51.462;6.696;2023-04-01T13:41:47;12.40;99.90
7317;DHT22;3699;51.462;6.696;2023-04-01T13:44:22;12.10;99.90
7317;DHT22;3699;51.462;6.696;2023-04-01T13:47:07;12.40;99.90
7317;DHT22;3699;51.462;6.696;2023-04-01T13:49:48;12.20;99.90
7317;DHT22;3699;51.462;6.696;2023-04-01T13:55:48;12.00;99.90
7317;DHT22;3699;51.462;6.696;2023-04-01T14:01:25;12.40;99.90
7317;DHT22;3699;51.462;6.696;2023-04-01T14:04:32;12.00;99.90
7317;DHT22;3699;51.462;6.696;2023-04-01T14:07:12;12.10;99.90
7317;DHT22;3699;51.462;6.696;2023-04-01T14:12:31;12.30;99.90
7317;DHT22;3699;51.462;6.696;2023-04-01T14:15:17;12.30;99.90
7317;DHT22;3699;51.462;6.696;2023-04-01T14:18:07;12.30;99.90
7317;DHT22;3699;51.462;6.696;2023-04-01T14:20:41;12.40;99.90
7317;DHT22;3699;51.462;6.696;2023-04-01T14:23:35;12.40;99.90
7317;DHT22;3699;51.462;6.696;2023-04-01T14:26:26;12.30;99.90
7317;DHT22;3699;51.462;6.696;2023-04-01T14:29:16;12.20;99.90
7317;DHT22;3699;51.462;6.696;2023-04-01T14:32:01;12.50;99.90
7317;DHT22;3699;51.462;6.696;2023-04-01T14:34:44;12.10;99.90
7317;DHT22;3699;51.462;6.696;2023-04-01T14:37:31;12.30;99.90
7317;DHT22;3699;51.462;6.696;2023-04-01T14:40:20;12.50;99.90
7317;DHT22;3699;51.462;6.696;2023-04-01T14:45:50;12.00;99.90
7317;DHT22;3699;51.462;6.696;2023-04-01T14:48:25;12.00;99.90
7317;DHT22;3699;51.462;6.696;2023-04-01T14:51:02;12.40;99.90
7317;DHT22;3699;51.462;6.696;2023-04-01T14:53:33;12.40;99.90
7317;DHT22;3699;51.462;6.696;2023-04-01T14:56:04;12.00;99.90
7317;DHT22;3699;51.462;6.696;2023-04-01T14:58:42;12.10;99.90
7317;DHT22;3699;51.462;6.696;2023-04-01T15:01:26;12.10;99.90
7317;DHT22;3699;51.462;6.696;2023-04-01T15:04:04;12.50;99.90
7317;DHT22;3699;51.462;6.696;2023-04-01T15:06:56;12.00;99.90
7317;DHT22;3699;51.462;6.696;2023-04-01T15:09:34;12.00;99.90
7317;DHT22;3699;51.462;6.696;2023-04-01T15:12:11;12.10;99.90
7317;DHT22;3699;51.462;6.696;2023-04-01T15:15:09;12.20;99.90
7317;DHT22;3699;51.462;6.696;2023-04-01T15:17:48;12.20;99.90
7317;DHT22;3699;51.462;6.696;2023-04-01T15:20:30;12.00;99.90
7317;DHT22;3699;51.462;6.696;2023-04-01T15:23:10;12.10;99.90
7317;DHT22;3699;51.462;6.696;2023-04-01T15:25:49;11.80;99.90
7317;DHT22;3699;51.462;6.696;2023-04-01T15:28:24;12.00;99.90
7317;DHT22;3699;51.462;6.696;2023-04-01T15:30:58;12.10;99.90
7317;DHT22;3699;51.462;6.696;2023-04-01T15:34:04;12.30;99.90
7317;DHT22;3699;51.462;6.696;2023-04-01T15:36:39;12.40;99.90
7317;DHT22;3699;51.462;6.696;2023-04-01T15:39:18;12.50;99.90
7317;DHT22;3699;51.462;6.696;2023-04-01T15:42:00;12.30;99.90
7317;DHT22;3699;51.462;6.696;2023-04-01T15:44:46;12.30;99.90
7317;DHT22;3699;51.462;6.696;2023-04-01T15:47:34;12.60;99.90
7317;DHT22;3699;51.462;6.696;2023-04-01T15:50:24;12.50;99.90
7317;DHT22;3699;51.462;6.696;2023-04-01T15:53:03;12.50;99.90
7317;DHT22;3699;51.462;6.696;2023-04-01T15:55:37;12.50;99.90
7317;DHT22;3699;51.462;6.696;2023-04-01T15:58:27;12.40;99.90
7317;DHT22;3699;51.462;6.696;2023-04-01T16:01:08;12.70;99.90
7317;DHT22;3699;51.462;6.696;2023-04-01T16:03:46;12.40;99.90
7317;DHT22;3699;51.462;6.696;2023-04-01T16:06:37;12.50;99.90
7317;DHT22;3699;51.462;6.696;2023-04-01T16:09:23;12.50;99.90
7317;DHT22;3699;51.462;6.696;2023-04-01T16:11:58;12.60;99.90
7317;DHT22;3699;51.462;6.696;2023-04-01T16:14:35;12.60;99.90
7317;DHT22;3699;51.462;6.696;2023-04-01T16:17:20;12.40;99.90
7317;DHT22;3699;51.462;6.696;2023-04-01T16:19:51;12.50;99.90
7317;DHT22;3699;51.462;6.696;2023-04-01T16:22:23;12.30;99.90
7317;DHT22;3699;51.462;6.696;2023-04-01T16:25:07;12.60;99.90
7317;DHT22;3699;51.462;6.696;2023-04-01T16:27:46;12.40;99.90
7317;DHT22;3699;51.462;6.696;2023-04-01T16:30:26;12.20;99.90
7317;DHT22;3699;51.462;6.696;2023-04-01T16:33:02;12.30;99.90
7317;DHT22;3699;51.462;6.696;2023-04-01T16:35:37;12.40;99.90
7317;DHT22;3699;51.462;6.696;2023-04-01T16:38:13;12.10;99.90
7317;DHT22;3699;51.462;6.696;2023-04-01T16:40:46;12.20;99.90
7317;DHT22;3699;51.462;6.696;2023-04-01T16:43:21;12.30;99.90
7317;DHT22;3699;51.462;6.696;2023-04-01T16:46:07;12.00;99.90
7317;DHT22;3699;51.462;6.696;2023-04-01T16:48:58;12.20;99.90
7317;DHT22;3699;51.462;6.696;2023-04-01T16:51:31;12.00;99.90
7317;DHT22;3699;51.462;6.696;2023-04-01T16:54:04;11.50;99.90
7317;DHT22;3699;51.462;6.696;2023-04-01T16:56:39;11.40;99.90
7317;DHT22;3699;51.462;6.696;2023-04-01T16:59:15;12.00;99.90
7317;DHT22;3699;51.462;6.696;2023-04-01T17:01:50;12.30;99.90
7317;DHT22;3699;51.462;6.696;2023-04-01T17:04:25;11.90;99.90
7317;DHT22;3699;51.462;6.696;2023-04-01T17:06:56;11.90;99.90
7317;DHT22;3699;51.462;6.696;2023-04-01T17:09:38;12.00;99.90
7317;DHT22;3699;51.462;6.696;2023-04-01T17:12:12;12.00;99.90
7317;DHT22;3699;51.462;6.696;2023-04-01T17:14:48;12.30;99.90
7317;DHT22;3699;51.462;6.696;2023-04-01T17:17:34;11.90;99.90
7317;DHT22;3699;51.462;6.696;2023-04-01T17:20:14;11.90;99.90
7317;DHT22;3699;51.462;6.696;2023-04-01T17:22:49;12.00;99.90
7317;DHT22;3699;51.462;6.696;2023-04-01T17:25:35;11.90;99.90
7317;DHT22;3699;51.462;6.696;2023-04-01T17:28:11;12.10;99.90
7317;DHT22;3699;51.462;6.696;2023-04-01T17:30:45;11.70;99.90
7317;DHT22;3699;51.462;6.696;2023-04-01T17:33:33;11.60;99.90
7317;DHT22;3699;51.462;6.696;2023-04-01T17:36:08;11.80;99.90
7317;DHT22;3699;51.462;6.696;2023-04-01T17:38:57;11.70;99.90
7317;DHT22;3699;51.462;6.696;2023-04-01T17:41:36;11.70;99.90
7317;DHT22;3699;51.462;6.696;2023-04-01T17:44:15;11.80;99.90
7317;DHT22;3699;51.462;6.696;2023-04-01T17:47:01;12.00;99.90
7317;DHT22;3699;51.462;6.696;2023-04-01T17:49:35;11.60;99.90
7317;DHT22;3699;51.462;6.696;2023-04-01T17:52:12;11.60;99.90
7317;DHT22;3699;51.462;6.696;2023-04-01T17:54:49;11.50;99.90
7317;DHT22;3699;51.462;6.696;2023-04-01T17:57:30;11.50;99.90
7317;DHT22;3699;51.462;6.696;2023-04-01T18:00:03;11.60;99.90
7317;DHT22;3699;51.462;6.696;2023-04-01T18:02:40;11.60;99.90
7317;DHT22;3699;51.462;6.696;2023-04-01T18:05:27;11.60;99.90
7317;DHT22;3699;51.462;6.696;2023-04-01T18:08:11;11.70;99.90
7317;DHT22;3699;51.462;6.696;2023-04-01T18:10:47;11.50;99.90
7317;DHT22;3699;51.462;6.696;2023-04-01T18:13:29;11.60;99.90
7317;DHT22;3699;51.462;6.696;2023-04-01T18:16:16;11.80;99.90
7317;DHT22;3699;51.462;6.696;2023-04-01T18:18:57;11.80;99.90
7317;DHT22;3699;51.462;6.696;2023-04-01T18:21:32;11.70;99.90
7317;DHT22;3699;51.462;6.696;2023-04-01T18:24:10;11.50;99.90
7317;DHT22;3699;51.462;6.696;2023-04-01T18:26:39;11.50;99.90
7317;DHT22;3699;51.462;6.696;2023-04-01T18:29:13;11.50;99.90
7317;DHT22;3699;51.462;6.696;2023-04-01T18:31:46;11.50;99.90
7317;DHT22;3699;51.462;6.696;2023-04-01T18:34:20;11.50;99.90
7317;DHT22;3699;51.462;6.696;2023-04-01T18:37:00;11.50;99.90
7317;DHT22;3699;51.462;6.696;2023-04-01T18:39:35;11.50;99.90
7317;DHT22;3699;51.462;6.696;2023-04-01T18:42:08;11.50;99.90
7317;DHT22;3699;51.462;6.696;2023-04-01T18:44:46;11.70;99.90
7317;DHT22;3699;51.462;6.696;2023-04-01T18:47:24;11.30;99.90
7317;DHT22;3699;51.462;6.696;2023-04-01T18:49:57;11.50;99.90
7317;DHT22;3699;51.462;6.696;2023-04-01T18:52:28;11.40;99.90
7317;DHT22;3699;51.462;6.696;2023-04-01T18:55:21;11.70;99.90
7317;DHT22;3699;51.462;6.696;2023-04-01T18:57:51;11.30;99.90
7317;DHT22;3699;51.462;6.696;2023-04-01T19:00:20;11.50;99.90
7317;DHT22;3699;51.462;6.696;2023-04-01T19:02:52;11.70;99.90
7317;DHT22;3699;51.462;6.696;2023-04-01T19:05:30;11.70;99.90
7317;DHT22;3699;51.462;6.696;2023-04-01T19:11:02;11.40;99.90
7317;DHT22;3699;51.462;6.696;2023-04-01T19:13:38;11.30;99.90
7317;DHT22;3699;51.462;6.696;2023-04-01T19:16:13;11.40;99.90